createdAt,value
2022-08-26T00:01:46.538Z,22
2022-08-26T00:07:27.345Z,22
2022-08-26T00:13:12.760Z,21.9
2022-08-26T00:18:53.095Z,21.8
2022-08-26T00:24:33.618Z,21.7
2022-08-26T00:30:13.827Z,21.6
2022-08-26T00:41:10.367Z,21.8
2022-08-26T00:46:53.224Z,21.8
2022-08-26T00:52:34.414Z,21.7
2022-08-26T00:58:14.884Z,21.7
2022-08-26T01:03:55.471Z,21.7
2022-08-26T01:09:36.417Z,21.7
2022-08-26T01:15:24.217Z,21.6
2022-08-26T01:21:04.471Z,21.7
2022-08-26T01:26:45.690Z,21.6
2022-08-26T01:32:29.591Z,21.6
2022-08-26T01:38:12.428Z,21.6
2022-08-26T01:43:52.794Z,21.5
2022-08-26T01:49:33.449Z,21.5
2022-08-26T01:55:15.764Z,21.5
2022-08-26T02:01:16.574Z,21.4
2022-08-26T02:06:58.068Z,21.4
2022-08-26T02:12:39.380Z,21.2
2022-08-26T02:18:21.710Z,21.3
2022-08-26T02:24:05.612Z,21.3
2022-08-26T02:29:48.986Z,21.2
2022-08-26T02:35:30.602Z,21.3
2022-08-26T02:41:12.245Z,21.3
2022-08-26T02:46:52.644Z,21.2
2022-08-26T02:52:35.025Z,21.2
2022-08-26T02:58:15.227Z,21.2
2022-08-26T03:03:55.497Z,21.2
2022-08-26T03:09:35.955Z,21.2
2022-08-26T03:15:18.075Z,21.2
2022-08-26T03:21:01.712Z,21.1
2022-08-26T03:26:51.929Z,21.1
2022-08-26T03:32:34.048Z,21.2
2022-08-26T03:38:14.203Z,21.1
2022-08-26T03:43:56.478Z,21.1
2022-08-26T03:57:16.736Z,21.2
2022-08-26T04:02:59.442Z,21.1
2022-08-26T04:08:40.809Z,21
2022-08-26T04:14:21.034Z,20.9
2022-08-26T04:20:04.862Z,20.8
2022-08-26T04:25:56.491Z,20.8
2022-08-26T04:31:59.732Z,20.7
2022-08-26T04:37:42.999Z,20.7
2022-08-26T04:43:24.631Z,20.7
2022-08-26T04:49:06.852Z,20.7
2022-08-26T04:54:47.949Z,20.7
2022-08-26T05:00:28.694Z,20.7
2022-08-26T05:06:08.792Z,20.7
2022-08-26T05:11:51.845Z,20.7
2022-08-26T05:17:32.928Z,20.8
2022-08-26T05:23:16.125Z,20.8
2022-08-26T05:28:58.722Z,20.8
2022-08-26T05:34:40.017Z,20.9
2022-08-26T05:40:23.573Z,20.9
2022-08-26T05:46:07.227Z,20.9
2022-08-26T05:51:48.681Z,21
2022-08-26T05:57:40.524Z,21
2022-08-26T06:03:28.819Z,21.1
2022-08-26T06:09:20.945Z,21
2022-08-26T06:15:04.097Z,21
2022-08-26T06:20:49.599Z,21
2022-08-26T06:26:42.715Z,21
2022-08-26T06:32:31.116Z,21
2022-08-26T06:38:13.114Z,21.1
2022-08-26T06:43:53.338Z,21.1
2022-08-26T06:49:33.575Z,21.2
2022-08-26T06:55:14.098Z,21.2
2022-08-26T07:01:02.688Z,21.3
2022-08-26T07:06:53.794Z,21.5
2022-08-26T07:12:37.557Z,21.5
2022-08-26T07:18:17.902Z,21.7
2022-08-26T07:24:05.079Z,21.8
2022-08-26T07:29:51.568Z,21.8
2022-08-26T07:35:32.810Z,22
2022-08-26T07:41:13.033Z,22.2
2022-08-26T07:47:03.637Z,22.3
2022-08-26T07:53:15.805Z,22.3
2022-08-26T07:59:13.374Z,22.6
2022-08-26T08:04:55.389Z,22.5
2022-08-26T08:10:36.020Z,22.3
2022-08-26T08:16:19.150Z,22.1
2022-08-26T08:22:01.025Z,22.4
2022-08-26T08:27:42.476Z,22.8
2022-08-26T08:33:23.195Z,22.9
2022-08-26T08:39:06.434Z,23.1
2022-08-26T08:44:51.839Z,23.1
2022-08-26T08:50:38.923Z,23
2022-08-26T08:56:30.135Z,23
2022-08-26T09:02:10.499Z,23
2022-08-26T09:07:52.936Z,23.1
2022-08-26T09:13:34.986Z,23
2022-08-26T09:19:16.131Z,22.5
2022-08-26T09:25:00.379Z,22.6
2022-08-26T09:30:44.845Z,22.5
2022-08-26T09:36:26.916Z,22.3
2022-08-26T09:42:07.382Z,22.3
2022-08-26T09:47:49.768Z,22.3
2022-08-26T09:53:30.629Z,22.3
2022-08-26T09:59:13.082Z,22.2
2022-08-26T10:04:53.056Z,22.1
2022-08-26T10:10:34.200Z,22.2
2022-08-26T10:16:28.465Z,22.2
2022-08-26T10:22:12.582Z,22.4
2022-08-26T10:27:53.836Z,22.6
2022-08-26T10:33:35.792Z,22.8
2022-08-26T10:39:17.887Z,22.9
2022-08-26T10:44:59.552Z,23
2022-08-26T10:50:42.456Z,23.2
2022-08-26T10:56:22.787Z,23.1
2022-08-26T11:02:04.100Z,23.4
2022-08-26T11:07:45.117Z,23.5
2022-08-26T11:13:25.474Z,22.8
2022-08-26T11:19:06.145Z,22.7
2022-08-26T11:24:46.677Z,22.9
2022-08-26T11:30:26.906Z,22.6
2022-08-26T11:36:11.573Z,22.5
2022-08-26T11:41:55.940Z,22.8
2022-08-26T11:47:40.419Z,23.3
2022-08-26T11:53:21.166Z,23.5
2022-08-26T11:59:06.226Z,23.7
2022-08-26T12:04:46.424Z,23.5
2022-08-26T12:10:29.461Z,23.6
2022-08-26T12:16:10.908Z,23.9
2022-08-26T12:21:51.482Z,23.6
2022-08-26T12:27:31.867Z,23.5
2022-08-26T12:33:21.998Z,23.4
2022-08-26T12:39:05.973Z,22.9
2022-08-26T12:44:53.034Z,23.2
2022-08-26T12:50:35.308Z,23.9
2022-08-26T12:56:16.010Z,24.4
2022-08-26T13:01:56.298Z,24.3
2022-08-26T13:07:38.162Z,23.9
2022-08-26T13:13:18.458Z,23.7
2022-08-26T13:18:58.518Z,23.9
2022-08-26T13:24:39.382Z,24.4
2022-08-26T13:30:19.319Z,24
2022-08-26T13:35:59.240Z,23.4
2022-08-26T13:41:39.051Z,22.7
2022-08-26T13:47:19.256Z,22.4
2022-08-26T13:52:59.418Z,22.7
2022-08-26T13:58:39.742Z,22.9
2022-08-26T14:04:23.361Z,23
2022-08-26T14:10:07.600Z,23.1
2022-08-26T14:20:51.193Z,22.9
2022-08-26T14:26:31.549Z,23.1
2022-08-26T14:32:11.473Z,23
2022-08-26T14:37:52.728Z,23
2022-08-26T14:43:32.514Z,22.7
2022-08-26T14:49:15.040Z,22.5
2022-08-26T14:54:55.429Z,22
2022-08-26T15:00:35.762Z,21.8
2022-08-26T15:06:15.915Z,21.8
2022-08-26T15:11:56.138Z,21.7
2022-08-26T15:17:38.086Z,21.7
2022-08-26T15:23:18.832Z,21.5
2022-08-26T15:29:04.966Z,21
2022-08-26T15:34:46.325Z,20.9
2022-08-26T15:40:26.597Z,21
2022-08-26T15:46:07.701Z,21
2022-08-26T15:51:48.580Z,21.1
2022-08-26T15:57:28.698Z,21.2
2022-08-26T16:03:11.068Z,21.1
2022-08-26T16:08:51.062Z,21.1
2022-08-26T16:14:31.653Z,21.1
2022-08-26T16:20:11.949Z,21
2022-08-26T16:25:52.147Z,21
2022-08-26T16:31:32.538Z,21
2022-08-26T16:37:14.321Z,21
2022-08-26T16:42:54.550Z,21.2
2022-08-26T16:48:36.256Z,21.5
2022-08-26T16:54:16.400Z,21.6
2022-08-26T16:59:56.697Z,21.7
2022-08-26T17:05:36.733Z,21.7
2022-08-26T17:11:17.056Z,21.8
2022-08-26T17:16:57.307Z,21.8
2022-08-26T17:22:37.387Z,21.8
2022-08-26T17:28:17.600Z,21.7
2022-08-26T17:34:00.871Z,21.7
2022-08-26T17:39:41.280Z,21.6
2022-08-26T17:45:21.461Z,21.4
2022-08-26T17:51:04.238Z,21.2
2022-08-26T17:56:53.168Z,20.8
2022-08-26T18:02:54.192Z,20.3
2022-08-26T18:08:36.783Z,20.1
2022-08-26T18:14:29.398Z,19.9
2022-08-26T18:20:14.913Z,19.9
2022-08-26T18:25:58.803Z,19.8
2022-08-26T18:31:51.273Z,19.8
2022-08-26T18:37:34.810Z,19.8
2022-08-26T18:43:17.842Z,19.8
2022-08-26T18:48:58.169Z,19.8
2022-08-26T18:54:38.563Z,19.8
2022-08-26T19:00:18.879Z,19.9
2022-08-26T19:06:01.990Z,20
2022-08-26T19:11:45.399Z,20
2022-08-26T19:17:31.432Z,20
2022-08-26T19:23:28.490Z,20.1
2022-08-26T19:29:19.914Z,20.1
2022-08-26T19:35:00.342Z,20.1
2022-08-26T19:40:40.933Z,20
2022-08-26T19:46:21.215Z,19.9
2022-08-26T19:52:04.516Z,19.8
2022-08-26T19:57:44.990Z,19.9
2022-08-26T20:03:25.583Z,19.9
2022-08-26T20:09:05.964Z,19.9
2022-08-26T20:14:46.730Z,19.8
2022-08-26T20:20:33.089Z,19.8
2022-08-26T20:26:17.514Z,19.8
2022-08-26T20:32:01.713Z,19.8
2022-08-26T20:37:49.118Z,19.8
2022-08-26T20:43:36.048Z,19.8
2022-08-26T20:49:19.192Z,19.7
2022-08-26T20:55:00.544Z,19.7
2022-08-26T21:00:41.173Z,19.7
2022-08-26T21:06:22.059Z,19.7
2022-08-26T21:12:04.521Z,19.6
2022-08-26T21:17:44.664Z,19.6
2022-08-26T21:23:28.743Z,19.5
2022-08-26T21:29:10.048Z,19.5
2022-08-26T21:34:53.777Z,19.4
2022-08-26T21:40:34.493Z,19.4
2022-08-26T21:46:15.332Z,19.3
2022-08-26T21:51:55.407Z,19.3
2022-08-26T21:57:35.817Z,19.3
2022-08-26T22:03:16.922Z,19.3
2022-08-26T22:08:57.173Z,19.2
2022-08-26T22:14:37.450Z,19.2
2022-08-26T22:20:17.635Z,19.1
2022-08-26T22:26:01.338Z,19.1
2022-08-26T22:31:41.741Z,19.1
2022-08-26T22:37:22.655Z,19.1
2022-08-26T22:43:02.991Z,19
2022-08-26T22:48:43.227Z,19.1
2022-08-26T22:54:23.471Z,19
2022-08-26T23:00:05.943Z,18.9
2022-08-26T23:05:46.848Z,19
2022-08-26T23:11:35.227Z,19
2022-08-26T23:17:15.824Z,18.9
2022-08-26T23:22:56.324Z,18.9
2022-08-26T23:28:36.645Z,18.8
2022-08-26T23:34:20.103Z,18.8
2022-08-26T23:40:00.779Z,18.8
2022-08-26T23:45:44.388Z,18.8
2022-08-26T23:51:25.542Z,18.8
2022-08-26T23:57:08.987Z,18.8
